createdAt,value
2017-08-14T00:01:50.963Z,73.90
2017-08-14T00:04:17.943Z,74.00
2017-08-14T00:06:44.887Z,74.40
2017-08-14T00:09:12.081Z,75.10
2017-08-14T00:11:45.027Z,74.90
2017-08-14T00:14:14.047Z,74.80
2017-08-14T00:16:41.031Z,74.80
2017-08-14T00:19:07.980Z,75.40
2017-08-14T00:21:35.120Z,76.40
2017-08-14T00:24:02.121Z,76.90
2017-08-14T00:26:29.020Z,76.90
2017-08-14T00:28:55.873Z,76.70
2017-08-14T00:31:24.695Z,76.80
2017-08-14T00:33:51.685Z,76.10
2017-08-14T00:36:19.300Z,75.70
2017-08-14T00:38:46.380Z,75.70
2017-08-14T00:41:13.543Z,75.80
2017-08-14T00:43:41.256Z,75.40
2017-08-14T00:46:09.168Z,75.20
2017-08-14T00:48:37.020Z,74.90
2017-08-14T00:51:04.065Z,74.80
2017-08-14T00:53:33.345Z,74.40
2017-08-14T00:56:00.597Z,74.40
2017-08-14T00:58:28.198Z,74.10
2017-08-14T01:00:55.092Z,73.80
2017-08-14T01:03:21.973Z,74.50
2017-08-14T01:05:48.952Z,74.80
2017-08-14T01:08:16.563Z,74.50
2017-08-14T01:10:43.431Z,74.50
2017-08-14T01:15:43.819Z,75.50
2017-08-14T01:18:11.611Z,75.40
2017-08-14T01:20:38.637Z,75.40
2017-08-14T01:23:05.580Z,75.70
2017-08-14T01:25:33.204Z,76.20
2017-08-14T01:28:00.186Z,75.70
2017-08-14T01:30:27.442Z,75.70
2017-08-14T01:32:55.234Z,75.80
2017-08-14T01:35:22.208Z,75.80
2017-08-14T01:37:49.156Z,75.90
2017-08-14T01:40:16.208Z,75.40
2017-08-14T01:42:43.170Z,75.30
2017-08-14T01:45:10.039Z,75.40
2017-08-14T01:47:37.748Z,75.00
2017-08-14T01:50:13.420Z,74.90
2017-08-14T01:52:40.723Z,75.00
2017-08-14T01:55:07.873Z,75.10
2017-08-14T01:57:34.758Z,74.50
2017-08-14T02:00:01.864Z,75.10
2017-08-14T02:02:28.960Z,75.10
2017-08-14T02:04:57.300Z,75.30
2017-08-14T02:07:24.208Z,75.00
2017-08-14T02:09:51.124Z,74.80
2017-08-14T02:12:19.432Z,74.60
2017-08-14T02:14:46.344Z,74.60
2017-08-14T02:17:13.443Z,74.90
2017-08-14T02:19:41.188Z,75.10
2017-08-14T02:22:09.700Z,74.50
2017-08-14T02:24:36.588Z,74.50
2017-08-14T02:27:03.577Z,74.40
2017-08-14T02:29:31.316Z,75.30
2017-08-14T02:31:58.162Z,74.60
2017-08-14T02:34:25.147Z,74.60
2017-08-14T02:36:53.704Z,74.70
2017-08-14T02:39:21.887Z,74.70
2017-08-14T02:41:49.580Z,74.50
2017-08-14T02:44:16.822Z,74.50
2017-08-14T02:46:44.919Z,74.80
2017-08-14T02:49:11.852Z,74.80
2017-08-14T02:51:39.009Z,74.90
2017-08-14T02:54:05.944Z,74.80
2017-08-14T02:56:33.638Z,74.50
2017-08-14T02:59:00.534Z,74.50
2017-08-14T03:01:27.390Z,74.40
2017-08-14T03:03:55.103Z,74.70
2017-08-14T03:06:22.064Z,74.70
2017-08-14T03:08:49.086Z,74.70
2017-08-14T03:11:16.408Z,74.70
2017-08-14T03:13:43.586Z,74.60
2017-08-14T03:16:10.734Z,74.50
2017-08-14T03:18:37.676Z,74.70
2017-08-14T03:21:04.590Z,75.00
2017-08-14T03:23:31.709Z,75.40
2017-08-14T03:25:58.670Z,76.10
2017-08-14T03:28:26.177Z,76.30
2017-08-14T03:30:53.231Z,76.40
2017-08-14T03:33:20.099Z,76.30
2017-08-14T03:35:47.279Z,76.40
2017-08-14T03:38:14.184Z,76.60
2017-08-14T03:40:41.124Z,76.70
2017-08-14T03:43:08.007Z,76.70
2017-08-14T03:45:35.050Z,76.50
2017-08-14T03:48:02.024Z,76.60
2017-08-14T03:50:30.111Z,76.60
2017-08-14T03:52:58.619Z,76.60
2017-08-14T03:55:27.250Z,76.60
2017-08-14T03:57:54.114Z,77.00
2017-08-14T04:00:21.004Z,77.00
2017-08-14T04:02:48.535Z,77.00
2017-08-14T04:05:16.457Z,76.90
2017-08-14T04:07:43.371Z,76.50
2017-08-14T04:10:10.298Z,76.80
2017-08-14T04:12:37.371Z,76.70
2017-08-14T04:15:05.203Z,77.10
2017-08-14T04:17:36.512Z,77.30
2017-08-14T04:20:03.664Z,77.40
2017-08-14T04:22:33.626Z,77.20
2017-08-14T04:25:02.429Z,77.00
2017-08-14T04:27:40.825Z,76.50
2017-08-14T04:30:07.819Z,76.50
2017-08-14T04:32:35.718Z,76.30
2017-08-14T04:35:02.699Z,76.50
2017-08-14T04:37:31.238Z,76.80
2017-08-14T04:40:03.988Z,77.20
2017-08-14T04:42:37.563Z,77.00
2017-08-14T04:45:04.447Z,76.90
2017-08-14T04:47:31.351Z,76.80
2017-08-14T04:49:58.341Z,76.60
2017-08-14T04:52:25.239Z,76.80
2017-08-14T04:54:52.122Z,77.00
2017-08-14T04:57:19.191Z,76.10
2017-08-14T04:59:50.476Z,75.40
2017-08-14T05:02:17.690Z,75.60
2017-08-14T05:04:44.629Z,75.60
2017-08-14T05:07:16.070Z,75.50
2017-08-14T05:09:44.746Z,75.70
2017-08-14T05:12:11.773Z,76.20
2017-08-14T05:14:40.913Z,76.80
2017-08-14T05:17:08.057Z,77.40
2017-08-14T05:19:34.944Z,77.80
2017-08-14T05:22:02.564Z,77.70
2017-08-14T05:24:29.526Z,77.70
2017-08-14T05:26:56.435Z,78.40
2017-08-14T05:29:23.426Z,78.00
2017-08-14T05:31:50.369Z,78.40
2017-08-14T05:34:17.256Z,78.20
2017-08-14T05:36:44.219Z,77.80
2017-08-14T05:39:11.096Z,78.10
2017-08-14T05:41:37.990Z,78.00
2017-08-14T05:44:04.930Z,77.30
2017-08-14T05:46:32.537Z,77.90
2017-08-14T05:48:59.445Z,77.90
2017-08-14T05:51:26.379Z,77.60
2017-08-14T05:53:53.333Z,77.50
2017-08-14T05:56:21.009Z,76.80
2017-08-14T05:58:47.959Z,76.80
2017-08-14T06:01:14.876Z,77.10
2017-08-14T06:03:42.496Z,77.30
2017-08-14T06:06:09.424Z,77.30
2017-08-14T06:08:36.375Z,77.00
2017-08-14T06:11:03.238Z,77.40
2017-08-14T06:13:30.191Z,78.00
2017-08-14T06:15:57.132Z,77.10
2017-08-14T06:18:24.165Z,77.30
2017-08-14T06:20:51.065Z,78.10
2017-08-14T06:23:18.692Z,76.80
2017-08-14T06:25:45.628Z,76.60
2017-08-14T06:28:12.500Z,76.60
2017-08-14T06:30:39.376Z,76.30
2017-08-14T06:33:06.320Z,76.00
2017-08-14T06:35:34.021Z,76.10
2017-08-14T06:38:01.931Z,76.10
2017-08-14T06:40:28.805Z,75.30
2017-08-14T06:42:55.683Z,74.10
2017-08-14T06:45:22.619Z,74.10
2017-08-14T06:47:49.480Z,74.10
2017-08-14T06:50:16.395Z,74.00
2017-08-14T06:52:43.404Z,72.40
2017-08-14T06:55:10.279Z,71.40
2017-08-14T06:57:37.281Z,72.00
2017-08-14T07:00:12.295Z,69.70
2017-08-14T07:02:40.928Z,69.40
2017-08-14T07:05:14.905Z,70.10
2017-08-14T07:07:54.295Z,70.10
2017-08-14T07:10:21.236Z,70.70
2017-08-14T07:12:48.249Z,69.80
2017-08-14T07:15:15.123Z,71.00
2017-08-14T07:17:42.819Z,71.50
2017-08-14T07:20:09.752Z,71.50
2017-08-14T07:22:36.675Z,70.30
2017-08-14T07:25:04.297Z,70.20
2017-08-14T07:27:31.211Z,70.00
2017-08-14T07:29:58.158Z,70.20
2017-08-14T07:32:25.043Z,68.90
2017-08-14T07:34:52.160Z,68.30
2017-08-14T07:37:19.099Z,68.60
2017-08-14T07:39:46.456Z,70.70
2017-08-14T07:42:13.360Z,71.40
2017-08-14T07:44:40.237Z,70.60
2017-08-14T07:47:07.143Z,70.10
2017-08-14T07:49:34.990Z,68.80
2017-08-14T07:52:01.836Z,70.00
2017-08-14T07:54:28.764Z,69.40
2017-08-14T07:56:55.675Z,68.70
2017-08-14T07:59:22.604Z,69.30
2017-08-14T08:19:11.294Z,69.90
2017-08-14T08:21:39.001Z,69.60
2017-08-14T08:24:05.844Z,69.60
2017-08-14T08:26:32.742Z,67.40
2017-08-14T08:29:00.432Z,68.90
2017-08-14T08:31:27.309Z,68.90
2017-08-14T08:33:54.160Z,68.70
2017-08-14T08:36:21.103Z,69.30
2017-08-14T08:38:47.973Z,69.50
2017-08-14T08:41:15.718Z,69.80
2017-08-14T08:43:42.564Z,69.80
2017-08-14T08:46:09.494Z,70.20
2017-08-14T08:48:36.465Z,70.30
2017-08-14T08:51:03.328Z,69.50
2017-08-14T08:53:31.018Z,68.60
2017-08-14T08:55:57.892Z,68.50
2017-08-14T08:58:24.784Z,68.00
2017-08-14T09:00:52.437Z,67.30
2017-08-14T09:03:20.119Z,66.60
2017-08-14T09:05:47.720Z,65.40
2017-08-14T09:08:14.678Z,65.30
2017-08-14T09:10:41.541Z,65.10
2017-08-14T09:13:08.438Z,61.50
2017-08-14T09:15:35.403Z,61.50
2017-08-14T09:18:02.327Z,59.00
2017-08-14T09:20:29.295Z,60.70
2017-08-14T09:22:56.172Z,58.10
2017-08-14T09:25:23.054Z,57.10
2017-08-14T09:27:50.045Z,57.10
2017-08-14T09:30:16.929Z,57.30
2017-08-14T09:32:44.558Z,54.50
2017-08-14T09:35:12.268Z,54.50
2017-08-14T09:37:39.280Z,54.20
2017-08-14T09:40:06.156Z,54.60
2017-08-14T09:42:33.110Z,55.80
2017-08-14T09:45:00.047Z,53.70
2017-08-14T09:47:26.947Z,53.10
2017-08-14T09:49:53.806Z,53.50
2017-08-14T09:52:20.780Z,54.50
2017-08-14T09:54:48.390Z,57.00
2017-08-14T09:57:15.242Z,56.90
2017-08-14T09:59:42.212Z,57.20
2017-08-14T10:02:09.073Z,57.60
2017-08-14T10:04:36.677Z,55.00
2017-08-14T10:07:04.004Z,55.00
2017-08-14T10:09:31.140Z,54.80
2017-08-14T10:11:58.042Z,54.20
2017-08-14T10:14:25.017Z,53.20
2017-08-14T10:16:51.896Z,51.10
2017-08-14T10:19:18.751Z,53.00
2017-08-14T10:21:45.672Z,51.40
2017-08-14T10:24:12.549Z,51.50
2017-08-14T10:26:39.492Z,51.50
2017-08-14T10:29:06.455Z,50.60
2017-08-14T10:31:33.341Z,50.60
2017-08-14T10:34:01.002Z,49.40
2017-08-14T10:36:27.996Z,49.40
2017-08-14T10:38:54.942Z,49.80
2017-08-14T10:41:21.930Z,48.30
2017-08-14T10:43:48.908Z,49.00
2017-08-14T10:46:15.865Z,48.60
2017-08-14T10:48:42.952Z,49.40
2017-08-14T10:51:09.905Z,50.20
2017-08-14T10:53:36.836Z,49.20
2017-08-14T10:56:03.740Z,50.50
2017-08-14T10:58:30.709Z,48.60
2017-08-14T11:00:57.664Z,48.60
2017-08-14T11:03:26.812Z,50.30
2017-08-14T11:05:54.746Z,50.20
2017-08-14T11:08:21.637Z,50.70
2017-08-14T11:28:10.454Z,51.00
2017-08-14T11:30:37.317Z,50.90
2017-08-14T11:33:04.198Z,50.60
2017-08-14T11:35:31.900Z,49.80
2017-08-14T11:37:58.807Z,49.70
2017-08-14T11:40:26.506Z,51.80
2017-08-14T11:42:53.362Z,51.70
2017-08-14T11:45:20.228Z,50.80
2017-08-14T11:47:47.163Z,51.70
2017-08-14T11:50:14.039Z,52.60
2017-08-14T11:52:41.305Z,50.50
2017-08-14T11:55:08.947Z,51.90
2017-08-14T11:57:35.803Z,51.90
2017-08-14T12:00:02.803Z,52.00
2017-08-14T12:02:29.744Z,51.10
2017-08-14T12:04:56.688Z,49.60
2017-08-14T12:07:23.623Z,51.00
2017-08-14T12:09:50.495Z,50.60
2017-08-14T12:12:17.443Z,50.40
2017-08-14T12:14:44.340Z,49.90
2017-08-14T12:17:12.042Z,49.40
2017-08-14T12:19:39.029Z,49.40
2017-08-14T12:22:05.937Z,50.80
2017-08-14T12:24:32.900Z,47.50
2017-08-14T12:26:59.860Z,48.90
2017-08-14T12:29:26.761Z,47.10
2017-08-14T12:31:53.791Z,47.80
2017-08-14T12:34:20.757Z,47.30
2017-08-14T12:36:47.796Z,48.20
2017-08-14T12:39:14.670Z,48.00
2017-08-14T12:41:41.565Z,48.30
2017-08-14T12:44:09.256Z,48.30
2017-08-14T12:46:36.573Z,48.30
2017-08-14T12:49:03.705Z,49.20
2017-08-14T12:51:30.627Z,50.50
2017-08-14T12:53:57.487Z,49.20
2017-08-14T12:56:25.368Z,48.00
2017-08-14T12:58:52.364Z,47.00
2017-08-14T13:01:19.241Z,47.20
2017-08-14T13:03:46.109Z,47.70
2017-08-14T13:06:13.273Z,47.80
2017-08-14T13:08:40.288Z,48.30
2017-08-14T13:11:07.865Z,47.60
2017-08-14T13:13:37.956Z,47.80
2017-08-14T13:16:04.921Z,48.10
2017-08-14T13:18:31.775Z,46.40
2017-08-14T13:20:58.637Z,47.10
2017-08-14T13:23:25.583Z,47.80
2017-08-14T13:25:52.469Z,44.30
2017-08-14T13:28:19.423Z,47.00
2017-08-14T13:30:46.413Z,48.10
2017-08-14T13:33:13.344Z,46.70
2017-08-14T13:35:40.326Z,44.50
2017-08-14T13:38:11.500Z,45.90
2017-08-14T13:40:40.867Z,45.90
2017-08-14T13:43:07.848Z,46.50
2017-08-14T13:45:34.828Z,47.90
2017-08-14T13:48:01.778Z,47.70
2017-08-14T13:50:28.682Z,45.30
2017-08-14T13:52:58.577Z,46.20
2017-08-14T13:55:26.260Z,45.10
2017-08-14T13:57:53.164Z,45.10
2017-08-14T14:00:20.044Z,46.30
2017-08-14T14:02:47.337Z,45.10
2017-08-14T14:05:14.233Z,45.90
2017-08-14T14:07:41.839Z,47.60
2017-08-14T14:10:08.780Z,47.60
2017-08-14T14:12:35.636Z,45.90
2017-08-14T14:15:02.590Z,45.10
2017-08-14T14:17:29.452Z,45.90
2017-08-14T14:19:56.434Z,46.20
2017-08-14T14:22:23.349Z,46.90
2017-08-14T14:24:50.268Z,46.40
2017-08-14T14:27:17.217Z,47.70
2017-08-14T14:29:44.225Z,47.40
2017-08-14T14:32:11.137Z,48.40
2017-08-14T14:34:38.090Z,47.40
2017-08-14T14:37:04.951Z,48.20
2017-08-14T14:39:31.853Z,47.70
2017-08-14T14:41:58.827Z,47.80
2017-08-14T14:44:26.598Z,46.70
2017-08-14T14:46:53.517Z,46.70
2017-08-14T14:49:20.465Z,47.60
2017-08-14T14:51:47.401Z,48.10
2017-08-14T14:54:14.400Z,48.50
2017-08-14T14:56:41.287Z,48.90
2017-08-14T14:59:08.177Z,49.00
2017-08-14T15:01:35.883Z,46.80
2017-08-14T15:04:02.768Z,46.60
2017-08-14T15:06:29.741Z,46.80
2017-08-14T15:08:56.722Z,46.80
2017-08-14T15:11:23.712Z,46.60
2017-08-14T15:13:50.623Z,46.70
2017-08-14T15:16:18.537Z,46.90
2017-08-14T15:18:46.245Z,45.20
2017-08-14T15:21:13.236Z,45.10
2017-08-14T15:23:40.188Z,46.30
2017-08-14T15:26:07.921Z,47.10
2017-08-14T15:28:35.889Z,46.60
2017-08-14T15:31:02.791Z,45.90
2017-08-14T15:33:29.710Z,45.80
2017-08-14T15:35:56.752Z,46.30
2017-08-14T15:38:23.603Z,46.40
2017-08-14T15:40:50.472Z,45.70
2017-08-14T15:43:17.424Z,46.80
2017-08-14T15:45:44.384Z,46.30
2017-08-14T15:48:11.356Z,45.50
2017-08-14T15:50:38.235Z,45.30
2017-08-14T15:53:05.898Z,45.70
2017-08-14T15:55:32.878Z,45.60
2017-08-14T15:57:59.736Z,44.00
2017-08-14T16:00:26.713Z,45.00
2017-08-14T16:02:53.608Z,45.10
2017-08-14T16:05:20.539Z,44.20
2017-08-14T16:07:48.225Z,44.10
2017-08-14T16:10:15.139Z,44.00
2017-08-14T16:12:42.808Z,45.10
2017-08-14T16:15:09.685Z,44.70
2017-08-14T16:17:36.709Z,44.40
2017-08-14T16:20:04.874Z,44.60
2017-08-14T16:22:31.897Z,44.60
2017-08-14T16:24:58.986Z,44.10
2017-08-14T16:27:25.951Z,44.60
2017-08-14T16:29:52.863Z,45.50
2017-08-14T16:32:20.996Z,46.20
2017-08-14T16:34:52.246Z,45.60
2017-08-14T16:37:23.934Z,45.50
2017-08-14T16:39:55.841Z,45.70
2017-08-14T16:42:22.800Z,46.60
2017-08-14T16:44:52.276Z,45.80
2017-08-14T16:47:19.156Z,45.90
2017-08-14T16:49:46.090Z,46.30
2017-08-14T16:52:21.180Z,45.90
2017-08-14T16:54:48.208Z,45.90
2017-08-14T16:57:15.168Z,45.80
2017-08-14T16:59:44.314Z,46.50
2017-08-14T17:02:11.188Z,46.70
2017-08-14T17:04:38.136Z,46.90
2017-08-14T17:07:05.126Z,47.60
2017-08-14T17:09:32.032Z,47.60
2017-08-14T17:11:58.944Z,47.50
2017-08-14T17:14:25.986Z,46.80
2017-08-14T17:16:53.608Z,47.10
2017-08-14T17:19:20.609Z,47.10
2017-08-14T17:39:12.571Z,48.10
2017-08-14T17:41:46.656Z,48.00
2017-08-14T17:44:30.181Z,48.40
2017-08-14T17:46:58.112Z,48.40
2017-08-14T17:49:25.057Z,48.20
2017-08-14T17:51:51.944Z,48.80
2017-08-14T17:54:18.860Z,49.20
2017-08-14T17:56:45.852Z,49.50
2017-08-14T17:59:13.552Z,49.30
2017-08-14T18:01:40.410Z,49.30
2017-08-14T18:04:07.362Z,49.40
2017-08-14T18:06:34.539Z,49.40
2017-08-14T18:09:01.400Z,49.90
2017-08-14T18:11:28.341Z,50.80
2017-08-14T18:13:56.021Z,51.80
2017-08-14T18:16:22.900Z,51.80
2017-08-14T18:18:49.842Z,52.20
2017-08-14T18:21:16.759Z,52.30
2017-08-14T18:23:43.624Z,52.50
2017-08-14T18:26:10.616Z,53.20
2017-08-14T18:28:37.506Z,53.00
2017-08-14T18:31:04.456Z,53.00
2017-08-14T18:33:31.367Z,53.60
2017-08-14T18:35:58.239Z,54.90
2017-08-14T18:38:25.270Z,55.40
2017-08-14T18:40:52.879Z,56.20
2017-08-14T18:43:19.777Z,56.20
2017-08-14T18:45:47.444Z,56.10
2017-08-14T18:48:15.053Z,57.70
2017-08-14T18:50:42.004Z,57.60
2017-08-14T18:53:08.892Z,57.40
2017-08-14T18:55:35.829Z,57.60
2017-08-14T18:58:02.797Z,57.50
2017-08-14T19:00:30.505Z,58.20
2017-08-14T19:02:57.374Z,58.20
2017-08-14T19:05:24.281Z,58.40
2017-08-14T19:07:52.255Z,58.80
2017-08-14T19:10:18.292Z,58.60
2017-08-14T19:12:45.168Z,58.80
2017-08-14T19:15:12.056Z,58.50
2017-08-14T19:17:39.020Z,59.40
2017-08-14T19:20:05.911Z,59.60
2017-08-14T19:22:33.554Z,58.70
2017-08-14T19:25:00.493Z,58.70
2017-08-14T19:27:31.529Z,58.70
2017-08-14T19:30:02.945Z,59.20
2017-08-14T19:32:30.145Z,59.90
2017-08-14T19:34:57.021Z,59.70
2017-08-14T19:37:24.660Z,59.70
2017-08-14T19:39:51.625Z,59.60
2017-08-14T19:42:19.274Z,59.50
2017-08-14T19:44:46.950Z,59.90
2017-08-14T19:47:14.640Z,60.40
2017-08-14T19:49:41.509Z,60.40
2017-08-14T19:52:08.411Z,60.60
2017-08-14T19:54:36.152Z,61.30
2017-08-14T19:57:03.096Z,61.30
2017-08-14T19:59:29.949Z,61.00
2017-08-14T20:01:56.898Z,61.00
2017-08-14T20:04:24.517Z,61.40
2017-08-14T20:06:51.465Z,61.40
2017-08-14T20:09:18.336Z,61.80
2017-08-14T20:11:45.261Z,61.10
2017-08-14T20:14:12.134Z,62.30
2017-08-14T20:16:38.998Z,62.50
2017-08-14T20:19:06.694Z,62.40
2017-08-14T20:21:33.563Z,62.30
2017-08-14T20:24:00.520Z,62.60
2017-08-14T20:26:27.425Z,62.00
2017-08-14T20:28:54.401Z,63.20
2017-08-14T20:31:21.261Z,63.00
2017-08-14T20:33:48.249Z,62.80
2017-08-14T20:36:15.129Z,63.20
2017-08-14T20:38:42.064Z,63.60
2017-08-14T20:41:08.950Z,64.30
2017-08-14T20:43:35.897Z,64.80
2017-08-14T20:46:02.781Z,65.40
2017-08-14T20:48:29.718Z,65.80
2017-08-14T20:50:56.575Z,66.40
2017-08-14T20:53:23.513Z,65.70
2017-08-14T20:55:50.397Z,66.40
2017-08-14T20:58:17.314Z,66.00
2017-08-14T21:00:44.287Z,65.80
2017-08-14T21:03:11.235Z,65.40
2017-08-14T21:05:38.122Z,65.30
2017-08-14T21:08:05.765Z,64.50
2017-08-14T21:10:32.710Z,64.40
2017-08-14T21:12:59.627Z,64.60
2017-08-14T21:15:26.579Z,65.10
2017-08-14T21:17:53.584Z,65.70
2017-08-14T21:20:20.466Z,65.40
2017-08-14T21:22:47.630Z,66.00
2017-08-14T21:25:14.532Z,66.20
2017-08-14T21:27:41.400Z,66.60
2017-08-14T21:30:08.368Z,66.50
2017-08-14T21:32:35.250Z,67.10
2017-08-14T21:35:02.232Z,66.90
2017-08-14T21:37:29.127Z,67.30
2017-08-14T21:39:55.999Z,67.10
2017-08-14T21:42:23.011Z,66.80
2017-08-14T21:44:49.957Z,67.00
2017-08-14T21:47:16.865Z,67.40
2017-08-14T21:49:43.846Z,67.70
2017-08-14T21:52:10.741Z,67.40
2017-08-14T21:54:37.695Z,67.30
2017-08-14T21:57:04.629Z,67.50
2017-08-14T21:59:31.496Z,67.40
2017-08-14T22:01:58.465Z,67.50
2017-08-14T22:04:25.324Z,67.60
2017-08-14T22:06:52.218Z,67.30
2017-08-14T22:09:19.156Z,67.70
2017-08-14T22:11:46.060Z,67.80
2017-08-14T22:14:12.941Z,67.60
2017-08-14T22:16:39.888Z,68.10
2017-08-14T22:19:06.828Z,68.10
2017-08-14T22:21:33.718Z,68.00
2017-08-14T22:24:00.593Z,68.10
2017-08-14T22:26:27.536Z,68.30
2017-08-14T22:28:54.477Z,68.00
2017-08-14T22:31:21.375Z,68.20
2017-08-14T22:33:48.328Z,68.40
2017-08-14T22:36:15.192Z,68.30
2017-08-14T22:38:42.135Z,68.90
2017-08-14T22:41:08.977Z,69.10
2017-08-14T22:43:35.904Z,68.70
2017-08-14T22:46:02.769Z,68.80
2017-08-14T22:48:29.643Z,68.20
2017-08-14T22:50:56.583Z,68.70
2017-08-14T22:53:23.435Z,69.50
2017-08-14T22:55:50.347Z,69.50
2017-08-14T22:58:17.330Z,69.10
2017-08-14T23:00:44.212Z,69.30
2017-08-14T23:03:11.075Z,68.90
2017-08-14T23:05:37.992Z,69.20
2017-08-14T23:08:04.839Z,68.60
2017-08-14T23:10:31.710Z,68.90
2017-08-14T23:12:58.795Z,69.20
2017-08-14T23:15:25.944Z,69.50
2017-08-14T23:17:53.600Z,70.00
2017-08-14T23:20:20.542Z,69.90
2017-08-14T23:22:47.383Z,69.60
2017-08-14T23:25:14.403Z,70.10
2017-08-14T23:27:41.262Z,70.80
2017-08-14T23:30:08.200Z,71.40
2017-08-14T23:32:35.130Z,72.00
2017-08-14T23:35:01.979Z,72.30
2017-08-14T23:37:28.815Z,72.30
2017-08-14T23:39:55.754Z,71.50
2017-08-14T23:42:22.593Z,71.30
2017-08-14T23:44:49.444Z,71.10
2017-08-14T23:47:16.375Z,71.30
2017-08-14T23:49:43.992Z,70.80
